Time;durP1;ratioP1;P1;durP2;ratioP2;P2;SDS_P1;SDS_P2;PMS_P1;PMS_P2;Temp;Humidity;BMP_temperature;BMP_pressure;BME280_temperature;BME280_humidity;BME280_pressure;Samples;Min_cycle;Max_cycle;Signal;HPM_P1;HPM_P2
2021/10/11 00:00:02;;;;;;;38.63;29.02;;;;;;;;;;2084919;28;20279;-62
2021/10/11 00:01:12;;;;;;;33.47;27.50;;;;;;;;;;2088594;28;20192;-60
2021/10/11 00:02:12;;;;;;;32.60;28.85;;;;;;;;;;2087901;28;20191;-58
2021/10/11 00:03:12;;;;;;;39.75;31.95;;;;;;;;;;2087608;28;20163;-62
2021/10/11 00:04:13;;;;;;;38.90;30.13;;;;;;;;;;2090115;28;20255;-60
2021/10/11 00:05:13;;;;;;;44.55;31.80;;;;;;;;;;2085666;28;20187;-62
2021/10/11 00:06:13;;;;;;;43.22;33.28;;;;;;;;;;2088892;28;20176;-61
2021/10/11 00:07:14;;;;;;;48.08;36.42;;;;;;;;;;2092275;28;20619;-63
2021/10/11 00:08:14;;;;;;;46.88;36.08;;;;;;;;;;2088940;28;20653;-57
2021/10/11 00:09:14;;;;;;;54.63;40.00;;;;;;;;;;2091702;28;20167;-61
2021/10/11 00:10:20;;;;;;;55.42;39.33;;;;;;;;;;2087724;28;20209;-60
2021/10/11 00:11:20;;;;;;;52.08;37.67;;;;;;;;;;2091887;28;20775;-60
2021/10/11 00:12:24;;;;;;;55.88;41.28;;;;;;;;;;2094050;28;20174;-59
2021/10/11 00:13:24;;;;;;;50.90;38.72;;;;;;;;;;2089420;28;20182;-61
2021/10/11 00:14:24;;;;;;;61.67;43.33;;;;;;;;;;2090908;28;20166;-63
2021/10/11 00:15:27;;;;;;;57.63;41.08;;;;;;;;;;2090470;28;20310;-62
2021/10/11 00:16:28;;;;;;;58.20;41.15;;;;;;;;;;2080375;28;20196;-59
2021/10/11 00:17:28;;;;;;;65.40;42.65;;;;;;;;;;2083618;28;20165;-63
2021/10/11 00:18:28;;;;;;;55.08;42.40;;;;;;;;;;2089765;28;20184;-63
2021/10/11 00:19:33;;;;;;;59.67;45.67;;;;;;;;;;2082958;28;20187;-61
2021/10/11 00:20:33;;;;;;;61.53;45.05;;;;;;;;;;2083184;28;20178;-61
2021/10/11 00:21:34;;;;;;;59.13;44.00;;;;;;;;;;2085287;28;20180;-62
2021/10/11 00:22:34;;;;;;;59.45;43.17;;;;;;;;;;2090801;28;20175;-62
2021/10/11 00:23:34;;;;;;;59.40;41.50;;;;;;;;;;2088867;28;20191;-64
2021/10/11 00:24:34;;;;;;;55.88;41.58;;;;;;;;;;2094287;28;20183;-63
2021/10/11 00:25:35;;;;;;;59.45;44.20;;;;;;;;;;2091217;28;20175;-64
2021/10/11 00:26:35;;;;;;;60.08;44.78;;;;;;;;;;2097500;28;20179;-63
2021/10/11 00:27:35;;;;;;;68.75;46.25;;;;;;;;;;2086951;28;20173;-61
2021/10/11 00:28:36;;;;;;;61.40;44.42;;;;;;;;;;2086244;28;20207;-61
2021/10/11 00:29:36;;;;;;;56.97;42.13;;;;;;;;;;2080677;28;20200;-60
2021/10/11 00:30:36;;;;;;;61.40;44.17;;;;;;;;;;2090557;28;20517;-62
2021/10/11 00:31:36;;;;;;;62.47;45.08;;;;;;;;;;2090264;28;20666;-61
2021/10/11 00:32:37;;;;;;;69.82;47.00;;;;;;;;;;2090676;28;20250;-65
2021/10/11 00:33:37;;;;;;;71.15;47.67;;;;;;;;;;2083375;28;20218;-64
2021/10/11 00:34:38;;;;;;;69.65;49.55;;;;;;;;;;2088195;28;20753;-62
2021/10/11 00:35:38;;;;;;;67.72;47.92;;;;;;;;;;2088886;28;20190;-61
2021/10/11 00:36:38;;;;;;;73.30;51.88;;;;;;;;;;2090287;28;20195;-60
2021/10/11 00:37:38;;;;;;;77.72;52.45;;;;;;;;;;2088455;28;20179;-62
2021/10/11 00:38:39;;;;;;;79.50;54.13;;;;;;;;;;2089491;28;20739;-57
2021/10/11 00:39:39;;;;;;;80.40;53.55;;;;;;;;;;2088332;28;20570;-62
2021/10/11 00:40:39;;;;;;;75.75;53.05;;;;;;;;;;2087658;28;20268;-64
2021/10/11 00:41:40;;;;;;;74.35;52.78;;;;;;;;;;2089027;28;20231;-63
2021/10/11 00:42:40;;;;;;;81.00;56.15;;;;;;;;;;2096046;28;20171;-57
2021/10/11 00:43:41;;;;;;;89.88;55.92;;;;;;;;;;2096279;28;20197;-60
2021/10/11 00:44:41;;;;;;;77.88;55.63;;;;;;;;;;2079852;28;20204;-61
2021/10/11 00:45:41;;;;;;;83.32;55.42;;;;;;;;;;2079891;28;20188;-60
2021/10/11 00:46:42;;;;;;;78.68;54.47;;;;;;;;;;2094928;28;20210;-63
2021/10/11 00:47:42;;;;;;;80.65;55.15;;;;;;;;;;2097933;28;20554;-63
2021/10/11 00:48:42;;;;;;;72.47;52.08;;;;;;;;;;2068804;28;20680;-62
2021/10/11 00:49:42;;;;;;;78.97;53.33;;;;;;;;;;2080752;28;20191;-63
2021/10/11 00:50:43;;;;;;;74.88;54.03;;;;;;;;;;2081789;28;20172;-63
2021/10/11 00:51:43;;;;;;;74.82;53.67;;;;;;;;;;2081723;28;20181;-62
2021/10/11 00:52:44;;;;;;;73.38;52.10;;;;;;;;;;2082266;28;20215;-61
2021/10/11 00:53:45;;;;;;;73.28;50.95;;;;;;;;;;2081098;28;20165;-64
2021/10/11 00:54:45;;;;;;;74.05;52.60;;;;;;;;;;2084301;28;20219;-58
2021/10/11 00:55:45;;;;;;;79.70;52.63;;;;;;;;;;2083682;28;20210;-59
2021/10/11 00:56:46;;;;;;;80.13;53.38;;;;;;;;;;2080195;28;20173;-62
2021/10/11 00:57:46;;;;;;;74.32;53.53;;;;;;;;;;2090660;28;20172;-61
2021/10/11 00:58:46;;;;;;;76.30;51.67;;;;;;;;;;2088797;28;20683;-60
2021/10/11 00:59:46;;;;;;;79.47;54.58;;;;;;;;;;2091670;28;20259;-61
2021/10/11 01:00:47;;;;;;;75.75;53.05;;;;;;;;;;2084968;28;20203;-63
2021/10/11 01:01:47;;;;;;;80.65;54.47;;;;;;;;;;2092122;28;20174;-62
2021/10/11 01:02:47;;;;;;;81.88;55.42;;;;;;;;;;2089846;28;20652;-61
2021/10/11 01:03:47;;;;;;;88.75;56.65;;;;;;;;;;2089042;28;20172;-61
2021/10/11 01:04:47;;;;;;;85.05;57.92;;;;;;;;;;2089352;28;20539;-61
2021/10/11 01:05:48;;;;;;;78.95;54.30;;;;;;;;;;2076531;28;20724;-61
2021/10/11 01:06:48;;;;;;;86.55;57.58;;;;;;;;;;2081804;28;20207;-62
2021/10/11 01:07:48;;;;;;;85.60;56.40;;;;;;;;;;2083329;28;20196;-62
2021/10/11 01:08:49;;;;;;;86.95;55.42;;;;;;;;;;2089739;28;20775;-69
2021/10/11 01:09:49;;;;;;;89.03;57.80;;;;;;;;;;2073884;28;20252;-64
2021/10/11 01:10:50;;;;;;;91.07;58.75;;;;;;;;;;2081203;28;20171;-62
2021/10/11 01:11:50;;;;;;;86.32;59.30;;;;;;;;;;2090230;28;20176;-62
2021/10/11 01:12:51;;;;;;;93.18;60.08;;;;;;;;;;2089675;28;20750;-63
2021/10/11 01:13:51;;;;;;;95.85;60.63;;;;;;;;;;2081695;28;20699;-62
2021/10/11 01:14:51;;;;;;;92.93;62.67;;;;;;;;;;2098815;28;20171;-63
2021/10/11 01:15:51;;;;;;;97.80;62.47;;;;;;;;;;2082870;28;20165;-62
2021/10/11 01:16:51;;;;;;;95.63;64.70;;;;;;;;;;2081281;28;20196;-63
2021/10/11 01:17:52;;;;;;;96.82;62.60;;;;;;;;;;2081289;28;20545;-64
2021/10/11 01:18:52;;;;;;;95.03;60.10;;;;;;;;;;2090358;28;20183;-63
2021/10/11 01:19:56;;;;;;;89.43;61.63;;;;;;;;;;2090414;28;20589;-63
2021/10/11 01:20:56;;;;;;;98.20;63.22;;;;;;;;;;2084785;28;20164;-63
2021/10/11 01:21:57;;;;;;;102.88;64.93;;;;;;;;;;2089947;28;20172;-62
2021/10/11 01:22:57;;;;;;;100.97;62.58;;;;;;;;;;2090536;28;20233;-59
2021/10/11 01:23:57;;;;;;;95.50;63.13;;;;;;;;;;2091718;28;20164;-63
2021/10/11 01:24:57;;;;;;;104.22;64.90;;;;;;;;;;2094287;28;20258;-62
2021/10/11 01:25:58;;;;;;;107.35;64.63;;;;;;;;;;2088100;28;20163;-63
2021/10/11 01:26:58;;;;;;;100.90;64.03;;;;;;;;;;2081264;28;20259;-60
2021/10/11 01:27:58;;;;;;;115.30;70.63;;;;;;;;;;2096153;28;20218;-63
2021/10/11 01:28:58;;;;;;;110.28;65.43;;;;;;;;;;2078975;28;20203;-62
2021/10/11 01:29:59;;;;;;;102.38;66.65;;;;;;;;;;2069246;28;20260;-63
2021/10/11 01:30:59;;;;;;;101.72;63.15;;;;;;;;;;2084813;28;20180;-62
2021/10/11 01:31:59;;;;;;;102.25;65.32;;;;;;;;;;2088110;28;20168;-62
2021/10/11 01:33:01;;;;;;;108.65;64.57;;;;;;;;;;2090265;28;20164;-64
2021/10/11 01:34:02;;;;;;;106.60;65.88;;;;;;;;;;2080461;28;20185;-63
2021/10/11 01:35:02;;;;;;;105.88;66.45;;;;;;;;;;2080558;28;20157;-62
2021/10/11 01:36:03;;;;;;;103.80;63.13;;;;;;;;;;2089982;28;20199;-64
2021/10/11 01:37:03;;;;;;;103.15;64.85;;;;;;;;;;2083526;28;20188;-63
2021/10/11 01:38:04;;;;;;;98.20;62.65;;;;;;;;;;2079141;28;20191;-63
2021/10/11 01:39:05;;;;;;;102.65;63.85;;;;;;;;;;2091700;28;20283;-61
2021/10/11 01:40:06;;;;;;;98.80;63.22;;;;;;;;;;2087669;28;20251;-63
2021/10/11 01:41:06;;;;;;;105.28;66.03;;;;;;;;;;2095460;28;20167;-62
2021/10/11 01:42:07;;;;;;;109.47;67.35;;;;;;;;;;2093922;28;20180;-63
2021/10/11 01:43:08;;;;;;;107.00;67.60;;;;;;;;;;2094723;28;20160;-61
2021/10/11 01:44:08;;;;;;;106.72;67.47;;;;;;;;;;2082982;28;20207;-61
2021/10/11 01:45:08;;;;;;;108.55;66.07;;;;;;;;;;2077677;28;20171;-63
2021/10/11 01:46:09;;;;;;;108.45;68.28;;;;;;;;;;2073627;28;20212;-63
2021/10/11 01:47:09;;;;;;;114.70;65.72;;;;;;;;;;2083726;28;20215;-63
2021/10/11 01:48:09;;;;;;;114.07;68.20;;;;;;;;;;2083599;28;20195;-64
2021/10/11 01:49:09;;;;;;;110.28;68.15;;;;;;;;;;2083334;28;20676;-64
2021/10/11 01:50:10;;;;;;;111.68;64.57;;;;;;;;;;2077855;28;20168;-64
2021/10/11 01:51:11;;;;;;;106.32;65.10;;;;;;;;;;2087662;28;20183;-64
2021/10/11 01:52:11;;;;;;;104.75;65.55;;;;;;;;;;2094062;28;20209;-58
2021/10/11 01:53:11;;;;;;;104.30;63.78;;;;;;;;;;2095615;28;20217;-62
2021/10/11 01:54:11;;;;;;;103.18;63.35;;;;;;;;;;2066783;28;20173;-62
2021/10/11 01:55:11;;;;;;;107.47;62.88;;;;;;;;;;2071516;28;20168;-62
2021/10/11 01:56:12;;;;;;;106.18;65.20;;;;;;;;;;2092912;28;20183;-62
2021/10/11 01:57:12;;;;;;;107.93;63.08;;;;;;;;;;2085834;28;20247;-62
2021/10/11 01:58:13;;;;;;;109.97;66.75;;;;;;;;;;2084439;28;20251;-60
2021/10/11 01:59:13;;;;;;;104.95;63.58;;;;;;;;;;2076499;28;20238;-61
2021/10/11 02:00:13;;;;;;;111.15;66.30;;;;;;;;;;2076441;28;20176;-61
2021/10/11 02:01:14;;;;;;;107.00;66.25;;;;;;;;;;2089084;28;20647;-64
2021/10/11 02:02:14;;;;;;;116.75;65.72;;;;;;;;;;2089846;28;20179;-65
2021/10/11 02:03:15;;;;;;;103.35;64.18;;;;;;;;;;2084963;28;20200;-63
2021/10/11 02:04:15;;;;;;;100.20;64.93;;;;;;;;;;2077535;28;20909;-63
2021/10/11 02:05:15;;;;;;;106.15;62.72;;;;;;;;;;2082430;28;20172;-60
2021/10/11 02:06:15;;;;;;;109.72;64.47;;;;;;;;;;2089468;28;20216;-60
2021/10/11 02:07:16;;;;;;;105.15;62.78;;;;;;;;;;2084408;28;20258;-58
2021/10/11 02:08:16;;;;;;;103.60;64.07;;;;;;;;;;2083344;28;20692;-53
2021/10/11 02:09:17;;;;;;;100.55;63.75;;;;;;;;;;2077358;28;20179;-63
2021/10/11 02:10:17;;;;;;;107.70;64.85;;;;;;;;;;2081289;28;20191;-61
2021/10/11 02:11:17;;;;;;;102.78;62.97;;;;;;;;;;2089361;28;20175;-61
2021/10/11 02:12:18;;;;;;;99.50;59.50;;;;;;;;;;2090762;28;20206;-60
2021/10/11 02:13:18;;;;;;;98.65;59.45;;;;;;;;;;2089657;28;20647;-61
2021/10/11 02:14:18;;;;;;;107.00;62.20;;;;;;;;;;2090101;28;20573;-59
2021/10/11 02:15:18;;;;;;;101.93;61.97;;;;;;;;;;2093917;28;20216;-63
2021/10/11 02:16:19;;;;;;;102.85;59.60;;;;;;;;;;2086802;28;20592;-59
2021/10/11 02:17:19;;;;;;;92.15;57.97;;;;;;;;;;2088098;28;20266;-59
2021/10/11 02:18:19;;;;;;;94.22;59.70;;;;;;;;;;2093949;28;20167;-62
2021/10/11 02:19:19;;;;;;;93.38;57.72;;;;;;;;;;2078786;28;20232;-59
2021/10/11 02:20:20;;;;;;;96.05;58.67;;;;;;;;;;2084369;28;20295;-60
2021/10/11 02:21:21;;;;;;;92.00;54.60;;;;;;;;;;2090296;28;20195;-63
2021/10/11 02:22:21;;;;;;;85.10;54.78;;;;;;;;;;2085692;28;20163;-60
2021/10/11 02:23:22;;;;;;;89.28;55.00;;;;;;;;;;2073061;28;20185;-65
2021/10/11 02:24:22;;;;;;;89.65;54.10;;;;;;;;;;2076468;28;20172;-62
2021/10/11 02:25:22;;;;;;;85.40;54.53;;;;;;;;;;2086255;28;20843;-61
2021/10/11 02:26:23;;;;;;;94.03;54.38;;;;;;;;;;2089005;28;20675;-61
2021/10/11 02:27:24;;;;;;;84.30;51.92;;;;;;;;;;2083784;28;20210;-65
2021/10/11 02:28:24;;;;;;;89.05;53.53;;;;;;;;;;2094596;28;20298;-61
2021/10/11 02:29:28;;;;;;;83.40;54.10;;;;;;;;;;2082515;28;20187;-63
2021/10/11 02:30:28;;;;;;;83.22;52.97;;;;;;;;;;2080131;28;20241;-65
2021/10/11 02:31:28;;;;;;;78.35;50.45;;;;;;;;;;2093674;28;20174;-64
2021/10/11 02:32:28;;;;;;;84.88;51.97;;;;;;;;;;2081515;28;20180;-62
2021/10/11 02:33:29;;;;;;;80.00;49.75;;;;;;;;;;2086811;28;20171;-59
2021/10/11 02:34:29;;;;;;;80.88;51.03;;;;;;;;;;2082374;28;20227;-60
2021/10/11 02:35:29;;;;;;;76.30;50.78;;;;;;;;;;2080463;28;20178;-65
2021/10/11 02:36:30;;;;;;;82.80;51.13;;;;;;;;;;2086554;28;20179;-65
2021/10/11 02:37:36;;;;;;;77.72;48.30;;;;;;;;;;2083423;28;20184;-57
2021/10/11 02:38:36;;;;;;;78.95;50.47;;;;;;;;;;2089050;28;20230;-62
2021/10/11 02:39:37;;;;;;;84.55;50.63;;;;;;;;;;2088770;28;20179;-64
2021/10/11 02:40:37;;;;;;;79.93;47.40;;;;;;;;;;2088678;28;20635;-63
2021/10/11 02:41:38;;;;;;;81.43;48.55;;;;;;;;;;2080248;28;20176;-62
2021/10/11 02:42:38;;;;;;;78.18;48.40;;;;;;;;;;2081149;28;20188;-59
2021/10/11 02:43:39;;;;;;;78.45;50.40;;;;;;;;;;2090077;28;20182;-62
2021/10/11 02:44:39;;;;;;;74.50;48.42;;;;;;;;;;2085311;28;20174;-62
2021/10/11 02:45:39;;;;;;;79.13;47.50;;;;;;;;;;2081724;28;20180;-62
2021/10/11 02:46:40;;;;;;;78.93;49.03;;;;;;;;;;2081629;28;20243;-61
2021/10/11 02:47:40;;;;;;;79.45;47.92;;;;;;;;;;2081846;28;20176;-62
2021/10/11 02:48:40;;;;;;;76.07;47.53;;;;;;;;;;2081620;28;20220;-63
2021/10/11 02:49:42;;;;;;;79.20;48.92;;;;;;;;;;2087322;28;20171;-61
2021/10/11 02:50:43;;;;;;;76.30;48.75;;;;;;;;;;2089572;28;20179;-61
2021/10/11 02:51:43;;;;;;;82.50;48.45;;;;;;;;;;2088153;28;20168;-62
2021/10/11 02:52:43;;;;;;;77.20;47.05;;;;;;;;;;2090203;28;20660;-62
2021/10/11 02:53:48;;;;;;;81.15;49.72;;;;;;;;;;2089936;28;20207;-64
2021/10/11 02:54:49;;;;;;;77.20;46.30;;;;;;;;;;2089787;28;20188;-61
2021/10/11 02:55:49;;;;;;;77.35;46.95;;;;;;;;;;2081064;28;20215;-63
2021/10/11 02:56:49;;;;;;;80.28;47.25;;;;;;;;;;2080660;28;20253;-63
2021/10/11 02:57:49;;;;;;;71.43;44.28;;;;;;;;;;2080985;28;20172;-61
2021/10/11 02:58:50;;;;;;;83.65;45.92;;;;;;;;;;2081021;28;20305;-61
2021/10/11 02:59:50;;;;;;;77.38;45.95;;;;;;;;;;2088016;28;20164;-63
2021/10/11 03:00:50;;;;;;;69.85;46.30;;;;;;;;;;2089546;28;20171;-63
2021/10/11 03:01:50;;;;;;;75.57;45.50;;;;;;;;;;2087564;28;20191;-63
2021/10/11 03:02:51;;;;;;;75.15;46.38;;;;;;;;;;2089919;28;20538;-61
2021/10/11 03:03:51;;;;;;;78.72;47.92;;;;;;;;;;2089738;28;20271;-62
2021/10/11 03:04:51;;;;;;;80.90;45.63;;;;;;;;;;2085456;28;20172;-61
2021/10/11 03:05:51;;;;;;;77.53;45.60;;;;;;;;;;2087983;28;20191;-61
2021/10/11 03:06:52;;;;;;;72.65;45.78;;;;;;;;;;2089958;28;20202;-60
2021/10/11 03:07:52;;;;;;;78.78;46.92;;;;;;;;;;2089667;28;20690;-62
2021/10/11 03:08:52;;;;;;;73.78;45.05;;;;;;;;;;2088776;28;20195;-62
2021/10/11 03:09:52;;;;;;;81.97;47.80;;;;;;;;;;2072813;28;20665;-61
2021/10/11 03:10:53;;;;;;;76.47;47.47;;;;;;;;;;2072587;28;20227;-64
2021/10/11 03:11:53;;;;;;;74.93;46.42;;;;;;;;;;2081494;28;20700;-64
2021/10/11 03:12:53;;;;;;;75.30;45.78;;;;;;;;;;2072625;28;20176;-62
2021/10/11 03:13:53;;;;;;;74.13;44.90;;;;;;;;;;2073167;28;20196;-62
2021/10/11 03:14:53;;;;;;;73.55;43.05;;;;;;;;;;2075000;28;20199;-63
2021/10/11 03:15:54;;;;;;;78.35;46.20;;;;;;;;;;2087345;28;20275;-63
2021/10/11 03:16:54;;;;;;;79.28;44.92;;;;;;;;;;2080905;28;20203;-58
2021/10/11 03:17:55;;;;;;;73.03;46.28;;;;;;;;;;2080694;28;20263;-62
2021/10/11 03:18:55;;;;;;;67.18;42.20;;;;;;;;;;2095694;28;20608;-64
2021/10/11 03:19:55;;;;;;;80.00;45.08;;;;;;;;;;2094214;28;20168;-65
2021/10/11 03:20:55;;;;;;;60.78;40.53;;;;;;;;;;2094517;28;20202;-64
2021/10/11 03:21:55;;;;;;;74.57;45.10;;;;;;;;;;2089914;28;20184;-63
2021/10/11 03:22:56;;;;;;;63.90;40.60;;;;;;;;;;2087092;28;20168;-63
2021/10/11 03:23:56;;;;;;;68.47;41.97;;;;;;;;;;2088204;28;20171;-62
2021/10/11 03:24:56;;;;;;;67.90;41.42;;;;;;;;;;2091061;28;20179;-65
2021/10/11 03:25:56;;;;;;;62.17;41.20;;;;;;;;;;2085927;28;20167;-61
2021/10/11 03:26:57;;;;;;;72.88;43.08;;;;;;;;;;2074976;28;20168;-63
2021/10/11 03:27:57;;;;;;;63.50;41.20;;;;;;;;;;2095841;28;20643;-63
2021/10/11 03:28:57;;;;;;;65.68;41.55;;;;;;;;;;2089147;28;20207;-61
2021/10/11 03:29:57;;;;;;;64.53;40.60;;;;;;;;;;2088967;28;20195;-60
2021/10/11 03:30:57;;;;;;;62.83;39.85;;;;;;;;;;2087234;28;20631;-63
2021/10/11 03:31:58;;;;;;;61.63;39.42;;;;;;;;;;2082311;28;20206;-66
2021/10/11 03:32:58;;;;;;;58.67;39.88;;;;;;;;;;2075220;28;20227;-64
2021/10/11 03:33:58;;;;;;;63.70;39.00;;;;;;;;;;2085072;28;20164;-61
2021/10/11 03:34:59;;;;;;;59.22;39.63;;;;;;;;;;2092579;28;20203;-62
2021/10/11 03:35:59;;;;;;;71.18;39.33;;;;;;;;;;2082542;28;20177;-60
2021/10/11 03:36:59;;;;;;;62.95;38.30;;;;;;;;;;2087253;28;20171;-59
2021/10/11 03:38:00;;;;;;;58.45;38.33;;;;;;;;;;2084468;28;20176;-64
2021/10/11 03:39:01;;;;;;;68.40;40.20;;;;;;;;;;2095543;28;20191;-64
2021/10/11 03:40:01;;;;;;;66.13;38.42;;;;;;;;;;2078866;28;20582;-61
2021/10/11 03:41:01;;;;;;;60.85;39.90;;;;;;;;;;2086574;28;20673;-59
2021/10/11 03:42:01;;;;;;;58.20;36.97;;;;;;;;;;2085057;28;20585;-61
2021/10/11 03:43:02;;;;;;;67.95;40.47;;;;;;;;;;2081249;28;20180;-62
2021/10/11 03:44:03;;;;;;;64.50;38.25;;;;;;;;;;2081112;28;20275;-65
2021/10/11 03:45:04;;;;;;;66.88;38.13;;;;;;;;;;2083129;28;20168;-62
2021/10/11 03:46:05;;;;;;;63.88;37.90;;;;;;;;;;2080214;28;20250;-64
2021/10/11 03:47:06;;;;;;;61.33;37.47;;;;;;;;;;2086497;28;20176;-62
2021/10/11 03:48:06;;;;;;;76.93;38.30;;;;;;;;;;2083371;28;20190;-61
2021/10/11 03:49:07;;;;;;;62.38;36.65;;;;;;;;;;2080852;28;20692;-63
2021/10/11 03:50:07;;;;;;;60.38;37.25;;;;;;;;;;2080614;28;20180;-65
2021/10/11 03:51:08;;;;;;;61.20;37.60;;;;;;;;;;2085846;28;20228;-63
2021/10/11 03:52:08;;;;;;;65.03;37.42;;;;;;;;;;2095110;28;20258;-63
2021/10/11 03:53:09;;;;;;;56.90;36.13;;;;;;;;;;2092572;28;20262;-64
2021/10/11 03:54:09;;;;;;;63.45;37.00;;;;;;;;;;2096065;28;20173;-62
2021/10/11 03:55:09;;;;;;;56.33;36.13;;;;;;;;;;2089258;28;20175;-65
2021/10/11 03:56:09;;;;;;;61.42;35.65;;;;;;;;;;2089042;28;20195;-63
2021/10/11 03:57:10;;;;;;;55.50;35.00;;;;;;;;;;2087211;28;20682;-63
2021/10/11 03:58:10;;;;;;;63.55;35.20;;;;;;;;;;2076050;28;20173;-62
2021/10/11 03:59:11;;;;;;;64.97;36.35;;;;;;;;;;2070756;28;20283;-64
2021/10/11 04:00:11;;;;;;;61.03;34.22;;;;;;;;;;2090638;28;20820;-61
2021/10/11 04:01:15;;;;;;;57.08;35.55;;;;;;;;;;2087860;28;20159;-63
2021/10/11 04:02:15;;;;;;;61.50;34.42;;;;;;;;;;2088579;28;20229;-62
2021/10/11 04:03:15;;;;;;;51.55;32.42;;;;;;;;;;2093393;28;20167;-62
2021/10/11 04:04:16;;;;;;;52.72;32.63;;;;;;;;;;2092418;28;20194;-62
2021/10/11 04:05:16;;;;;;;52.05;31.40;;;;;;;;;;2092094;28;20609;-63
2021/10/11 04:06:17;;;;;;;55.78;32.50;;;;;;;;;;2097234;28;20162;-61
2021/10/11 04:07:19;;;;;;;46.03;30.52;;;;;;;;;;2095111;28;20758;-60
2021/10/11 04:08:20;;;;;;;57.92;31.52;;;;;;;;;;2084684;28;20588;-64
2021/10/11 04:09:26;;;;;;;48.08;30.38;;;;;;;;;;2084708;28;20164;-65
2021/10/11 04:10:30;;;;;;;53.83;32.13;;;;;;;;;;2084941;28;20160;-63
2021/10/11 04:11:32;;;;;;;46.10;31.63;;;;;;;;;;2082971;28;20883;-64
2021/10/11 04:12:36;;;;;;;46.47;29.77;;;;;;;;;;2089755;28;20214;-64
2021/10/11 04:13:37;;;;;;;51.22;30.25;;;;;;;;;;2093958;28;20269;-66
2021/10/11 04:14:37;;;;;;;46.58;29.60;;;;;;;;;;2088964;28;20171;-65
2021/10/11 04:15:38;;;;;;;47.35;30.15;;;;;;;;;;2088025;28;20601;-64
2021/10/11 04:16:38;;;;;;;53.47;29.63;;;;;;;;;;2083910;28;20184;-62
2021/10/11 04:17:39;;;;;;;46.55;30.00;;;;;;;;;;2094513;28;20197;-65
2021/10/11 04:18:40;;;;;;;48.55;29.58;;;;;;;;;;2075454;28;20243;-65
2021/10/11 04:19:40;;;;;;;47.75;30.73;;;;;;;;;;2077440;28;20176;-62
2021/10/11 04:20:40;;;;;;;48.63;29.05;;;;;;;;;;2071446;28;20191;-60
2021/10/11 04:21:42;;;;;;;45.63;28.95;;;;;;;;;;2087312;28;20190;-56
2021/10/11 04:22:43;;;;;;;43.83;27.83;;;;;;;;;;2085140;28;20174;-61
2021/10/11 04:23:43;;;;;;;44.55;27.00;;;;;;;;;;2096865;28;20615;-59
2021/10/11 04:24:43;;;;;;;45.10;26.77;;;;;;;;;;2082559;28;20651;-66
2021/10/11 04:25:43;;;;;;;47.85;28.50;;;;;;;;;;2096547;28;20186;-64
2021/10/11 04:26:44;;;;;;;46.95;27.83;;;;;;;;;;2097276;28;20207;-64
2021/10/11 04:27:44;;;;;;;48.22;26.77;;;;;;;;;;2080671;28;20176;-62
2021/10/11 04:29:55;;;;;;;44.63;26.60;;;;;;;;;;2068149;28;20377;-51
2021/10/11 04:30:55;;;;;;;44.35;26.95;;;;;;;;;;2079392;28;20180;-49
2021/10/11 04:31:55;;;;;;;42.50;25.40;;;;;;;;;;2071086;28;20208;-53
2021/10/11 04:32:55;;;;;;;41.70;25.83;;;;;;;;;;2074290;28;20543;-52
2021/10/11 04:33:56;;;;;;;43.10;25.95;;;;;;;;;;2080107;28;20204;-51
2021/10/11 04:34:56;;;;;;;38.20;24.17;;;;;;;;;;2080166;28;20264;-51
2021/10/11 04:35:56;;;;;;;36.42;23.65;;;;;;;;;;2074635;28;20187;-51
2021/10/11 04:36:56;;;;;;;43.88;24.58;;;;;;;;;;2069808;28;20182;-51
2021/10/11 04:37:57;;;;;;;39.60;24.63;;;;;;;;;;2071198;28;20704;-54
2021/10/11 04:38:57;;;;;;;38.70;22.83;;;;;;;;;;2079518;28;20364;-52
2021/10/11 04:39:57;;;;;;;37.53;23.98;;;;;;;;;;2080911;28;20546;-53
2021/10/11 04:40:57;;;;;;;41.30;22.30;;;;;;;;;;2077205;28;20204;-54
2021/10/11 04:41:58;;;;;;;36.95;21.65;;;;;;;;;;2088159;28;20200;-52
2021/10/11 04:42:58;;;;;;;31.75;21.05;;;;;;;;;;2083124;28;20196;-51
2021/10/11 04:43:59;;;;;;;37.00;22.45;;;;;;;;;;2077267;28;20653;-52
2021/10/11 04:44:59;;;;;;;35.92;21.27;;;;;;;;;;2081092;28;20165;-53
2021/10/11 04:45:59;;;;;;;37.00;21.05;;;;;;;;;;2080500;28;20571;-52
2021/10/11 04:46:59;;;;;;;38.38;20.77;;;;;;;;;;2079694;28;20188;-55
2021/10/11 04:48:01;;;;;;;37.80;19.38;;;;;;;;;;2080429;28;20172;-52
2021/10/11 04:49:01;;;;;;;34.65;21.02;;;;;;;;;;2080153;28;20160;-52
2021/10/11 04:50:02;;;;;;;33.55;20.38;;;;;;;;;;2080023;28;20196;-55
2021/10/11 04:51:02;;;;;;;29.80;19.05;;;;;;;;;;2080107;28;20195;-52
2021/10/11 04:52:02;;;;;;;34.22;18.33;;;;;;;;;;2074790;28;20602;-53
2021/10/11 04:53:04;;;;;;;36.67;20.02;;;;;;;;;;2080144;28;20671;-50
2021/10/11 04:54:05;;;;;;;35.75;19.80;;;;;;;;;;2075128;28;20221;-52
2021/10/11 04:55:06;;;;;;;30.77;18.27;;;;;;;;;;2080577;28;20180;-52
2021/10/11 04:56:06;;;;;;;31.08;18.58;;;;;;;;;;2075615;28;20195;-53
2021/10/11 04:57:06;;;;;;;35.00;18.88;;;;;;;;;;2080681;28;20175;-54
2021/10/11 04:58:07;;;;;;;30.75;18.40;;;;;;;;;;2075751;28;20269;-53
2021/10/11 04:59:07;;;;;;;34.55;16.17;;;;;;;;;;2073112;28;20277;-51
2021/10/11 05:00:07;;;;;;;29.17;18.42;;;;;;;;;;2071642;28;20176;-51
2021/10/11 05:01:08;;;;;;;26.65;16.70;;;;;;;;;;2080205;28;20184;-55
2021/10/11 05:02:08;;;;;;;27.60;16.63;;;;;;;;;;2069007;28;20294;-52
2021/10/11 05:03:08;;;;;;;28.90;16.35;;;;;;;;;;2070951;28;20169;-52
2021/10/11 05:04:10;;;;;;;27.63;16.67;;;;;;;;;;2072417;28;20682;-54
2021/10/11 05:05:11;;;;;;;29.42;15.70;;;;;;;;;;2069405;28;20169;-56
2021/10/11 05:06:11;;;;;;;28.45;16.60;;;;;;;;;;2078399;28;20181;-56
2021/10/11 05:07:11;;;;;;;37.38;16.77;;;;;;;;;;2081541;28;20195;-53
2021/10/11 05:08:12;;;;;;;25.08;14.75;;;;;;;;;;2072693;28;20631;-55
2021/10/11 05:09:12;;;;;;;25.13;15.05;;;;;;;;;;2070698;28;20189;-53
2021/10/11 05:10:12;;;;;;;29.40;16.38;;;;;;;;;;2068157;28;20200;-54
2021/10/11 05:11:12;;;;;;;23.17;13.57;;;;;;;;;;2080926;28;20227;-52
2021/10/11 05:12:13;;;;;;;25.45;14.68;;;;;;;;;;2081102;28;20172;-54
2021/10/11 05:13:13;;;;;;;21.92;14.18;;;;;;;;;;2078214;28;20180;-55
2021/10/11 05:14:13;;;;;;;25.98;15.40;;;;;;;;;;2068190;28;20764;-54
2021/10/11 05:15:14;;;;;;;21.05;14.32;;;;;;;;;;2064927;28;20276;-53
2021/10/11 05:16:14;;;;;;;28.42;13.73;;;;;;;;;;2072899;28;20164;-55
2021/10/11 05:17:15;;;;;;;21.92;14.60;;;;;;;;;;2073279;28;20165;-53
2021/10/11 05:18:15;;;;;;;21.80;12.98;;;;;;;;;;2072970;28;20204;-55
2021/10/11 05:19:23;;;;;;;24.98;13.75;;;;;;;;;;2081231;28;20346;-54
2021/10/11 05:20:25;;;;;;;24.23;14.07;;;;;;;;;;2072395;28;20174;-53
2021/10/11 05:21:26;;;;;;;26.10;13.48;;;;;;;;;;2064058;28;20181;-56
2021/10/11 05:22:26;;;;;;;23.15;13.13;;;;;;;;;;2073436;28;20165;-55
2021/10/11 05:23:26;;;;;;;28.10;13.88;;;;;;;;;;2081256;28;20169;-53
2021/10/11 05:24:27;;;;;;;23.02;12.85;;;;;;;;;;2075347;28;20684;-52
2021/10/11 05:25:27;;;;;;;23.98;13.43;;;;;;;;;;2078851;28;20176;-53
2021/10/11 05:26:29;;;;;;;20.27;11.88;;;;;;;;;;2078032;28;20180;-53
2021/10/11 05:27:29;;;;;;;17.30;11.63;;;;;;;;;;2077282;28;20184;-53
2021/10/11 05:28:29;;;;;;;21.55;12.07;;;;;;;;;;2078940;28;20243;-57
2021/10/11 05:29:30;;;;;;;19.73;11.32;;;;;;;;;;2077066;28;20205;-53
2021/10/11 05:30:30;;;;;;;21.35;12.30;;;;;;;;;;2079919;28;20190;-53
2021/10/11 05:31:31;;;;;;;20.20;10.82;;;;;;;;;;2081334;28;20181;-54
2021/10/11 05:32:34;;;;;;;25.50;11.68;;;;;;;;;;2081554;28;20168;-53
2021/10/11 05:33:35;;;;;;;35.17;12.85;;;;;;;;;;2072601;28;20181;-54
2021/10/11 05:34:35;;;;;;;23.13;10.55;;;;;;;;;;2075354;28;20604;-55
2021/10/11 05:35:36;;;;;;;17.75;10.57;;;;;;;;;;2074883;28;20231;-55
2021/10/11 05:36:36;;;;;;;20.55;11.63;;;;;;;;;;2071201;28;20632;-54
2021/10/11 05:37:37;;;;;;;15.52;10.43;;;;;;;;;;2075202;28;20269;-55
2021/10/11 05:38:37;;;;;;;22.05;11.20;;;;;;;;;;2082393;28;20764;-57
2021/10/11 05:39:38;;;;;;;19.40;10.73;;;;;;;;;;2079428;28;20730;-57
2021/10/11 05:40:38;;;;;;;22.75;10.07;;;;;;;;;;2080318;28;20180;-57
2021/10/11 05:41:39;;;;;;;19.08;10.65;;;;;;;;;;2081628;28;20180;-55
2021/10/11 05:42:39;;;;;;;24.35;10.10;;;;;;;;;;2080847;28;20588;-54
2021/10/11 05:43:39;;;;;;;18.02;9.80;;;;;;;;;;2082231;28;20178;-54
2021/10/11 05:44:39;;;;;;;17.67;10.88;;;;;;;;;;2079531;28;20188;-54
2021/10/11 05:45:40;;;;;;;19.60;9.82;;;;;;;;;;2081686;28;20738;-53
2021/10/11 05:46:40;;;;;;;17.90;9.57;;;;;;;;;;2080108;28;20172;-52
2021/10/11 05:47:40;;;;;;;18.33;9.85;;;;;;;;;;2080911;28;20191;-50
2021/10/11 05:48:41;;;;;;;17.73;9.75;;;;;;;;;;2079808;28;20640;-50
2021/10/11 05:49:41;;;;;;;17.35;10.43;;;;;;;;;;2073724;28;20248;-50
2021/10/11 05:50:41;;;;;;;16.58;9.43;;;;;;;;;;2077045;28;20730;-50
2021/10/11 05:51:42;;;;;;;20.13;9.48;;;;;;;;;;2078099;28;20274;-55
2021/10/11 05:52:42;;;;;;;19.77;9.65;;;;;;;;;;2077381;28;20195;-53